Time;durP1;ratioP1;P1;durP2;ratioP2;P2;SDS_P1;SDS_P2;PMS_P1;PMS_P2;Temp;Humidity;BMP_temperature;BMP_pressure;BME280_temperature;BME280_humidity;BME280_pressure;Samples;Min_cycle;Max_cycle;Signal;HPM_P1;HPM_P2
2023/03/03 00:04:11;;;;;;;0.20;0.10;;;7.00;99.90;;;;;;20989188;28;20396;-66
2023/03/03 00:14:22;;;;;;;0.20;0.10;;;6.90;99.90;;;;;;20988057;28;21017;-66
2023/03/03 00:24:36;;;;;;;0.20;0.00;;;6.90;99.90;;;;;;20986935;28;20513;-67
2023/03/03 00:34:40;;;;;;;0.20;0.00;;;6.80;99.90;;;;;;20986741;28;20479;-67
2023/03/03 00:44:47;;;;;;;0.20;0.10;;;6.70;99.90;;;;;;20968218;28;20406;-66
2023/03/03 00:54:51;;;;;;;0.20;0.03;;;6.60;99.90;;;;;;20985502;28;20947;-66
2023/03/03 01:04:56;;;;;;;0.20;0.10;;;6.60;99.90;;;;;;20967090;28;20462;-66
2023/03/03 01:15:00;;;;;;;0.20;0.10;;;6.50;99.90;;;;;;20983870;28;21042;-67
2023/03/03 01:25:06;;;;;;;0.20;0.10;;;6.50;99.90;;;;;;20982629;28;20445;-67
2023/03/03 01:35:10;;;;;;;0.20;0.10;;;6.40;99.90;;;;;;20980010;28;20410;-66
2023/03/03 01:45:18;;;;;;;0.20;0.10;;;6.30;99.90;;;;;;20962829;28;20445;-66
2023/03/03 01:55:25;;;;;;;0.20;0.10;;;6.10;99.90;;;;;;20961996;28;20417;-67
2023/03/03 02:05:30;;;;;;;0.20;0.10;;;6.40;99.90;;;;;;20945733;28;20753;-66
2023/03/03 02:15:35;;;;;;;0.20;0.10;;;6.40;99.90;;;;;;20961011;28;20806;-66
2023/03/03 02:25:50;;;;;;;0.20;0.10;;;6.70;99.90;;;;;;20944127;28;20449;-67
2023/03/03 02:35:55;;;;;;;0.20;0.10;;;6.80;99.90;;;;;;20977769;28;20464;-67
2023/03/03 02:45:59;;;;;;;0.20;0.10;;;6.60;99.90;;;;;;20964862;28;20450;-66
2023/03/03 02:56:06;;;;;;;0.20;0.10;;;6.20;99.90;;;;;;20994707;28;20758;-67
2023/03/03 03:06:10;;;;;;;0.20;0.10;;;6.10;99.90;;;;;;20994248;28;20402;-66
2023/03/03 03:16:15;;;;;;;0.20;0.10;;;6.10;99.90;;;;;;20975509;28;20406;-66
2023/03/03 03:26:19;;;;;;;0.20;0.10;;;5.80;99.90;;;;;;20992908;28;20429;-66
2023/03/03 03:36:25;;;;;;;0.20;0.10;;;5.70;99.90;;;;;;20973611;28;20413;-66
2023/03/03 03:46:29;;;;;;;0.20;0.00;;;5.50;99.90;;;;;;20972420;28;20402;-67
2023/03/03 03:56:34;;;;;;;0.20;0.00;;;5.40;99.90;;;;;;20989419;28;20482;-68
2023/03/03 04:06:38;;;;;;;0.20;0.00;;;5.40;99.90;;;;;;20971710;28;20398;-67
2023/03/03 04:16:43;;;;;;;0.20;0.00;;;5.40;99.90;;;;;;20989128;28;20414;-67
2023/03/03 04:26:47;;;;;;;0.20;0.10;;;5.40;99.90;;;;;;20967877;28;20409;-66
2023/03/03 04:36:52;;;;;;;0.20;0.10;;;5.40;99.90;;;;;;20996590;28;20929;-66
2023/03/03 04:46:56;;;;;;;0.20;0.10;;;5.50;99.90;;;;;;20996754;28;20412;-68
2023/03/03 04:57:01;;;;;;;0.20;0.10;;;5.70;99.90;;;;;;20986144;28;20414;-67
2023/03/03 05:07:05;;;;;;;0.20;0.00;;;5.70;99.90;;;;;;20984525;28;20406;-66
2023/03/03 05:17:10;;;;;;;0.20;0.10;;;5.50;99.90;;;;;;20983527;28;20398;-67
2023/03/03 05:27:14;;;;;;;0.20;0.10;;;5.70;99.90;;;;;;20983038;28;20402;-69
2023/03/03 05:37:19;;;;;;;0.20;0.00;;;5.60;99.90;;;;;;20980098;28;20464;-67
2023/03/03 05:47:23;;;;;;;0.20;0.10;;;5.50;99.90;;;;;;20962585;28;20754;-67
2023/03/03 05:57:28;;;;;;;0.20;0.10;;;5.30;99.90;;;;;;20962159;28;21025;-66
2023/03/03 06:07:32;;;;;;;0.20;0.10;;;5.30;99.90;;;;;;20961206;28;20397;-66
2023/03/03 06:17:37;;;;;;;0.30;0.30;;;5.60;99.90;;;;;;20959991;28;20464;-67
2023/03/03 06:27:45;;;;;;;0.20;0.10;;;5.50;99.90;;;;;;21022158;28;20465;-68
2023/03/03 06:37:50;;;;;;;0.20;0.10;;;5.40;99.90;;;;;;21060023;28;20473;-68
2023/03/03 06:47:54;;;;;;;0.20;0.03;;;5.30;99.90;;;;;;21008234;28;20402;-65
2023/03/03 06:57:59;;;;;;;0.20;0.10;;;5.50;99.90;;;;;;20953185;28;20430;-67
2023/03/03 07:08:06;;;;;;;0.20;0.10;;;5.70;99.90;;;;;;20935125;28;20406;-68
2023/03/03 07:18:31;;;;;;;0.20;0.10;;;6.10;99.90;;;;;;20939606;28;20394;-68
2023/03/03 07:28:35;;;;;;;0.20;0.00;;;6.30;99.90;;;;;;20956160;28;20493;-68
2023/03/03 07:38:45;;;;;;;0.20;0.10;;;6.50;99.90;;;;;;20988396;28;20410;-68
2023/03/03 07:48:49;;;;;;;0.20;0.10;;;6.70;99.90;;;;;;20969799;28;20443;-67
2023/03/03 07:58:55;;;;;;;0.20;0.10;;;7.10;99.90;;;;;;20986609;28;20417;-68
2023/03/03 08:09:13;;;;;;;0.20;0.10;;;7.40;99.90;;;;;;20986097;28;20533;-68
2023/03/03 08:19:19;;;;;;;0.20;0.10;;;7.90;99.90;;;;;;20985782;28;20527;-67
2023/03/03 08:29:22;;;;;;;0.20;0.10;;;8.30;99.90;;;;;;21010059;28;20408;-68
2023/03/03 08:39:28;;;;;;;0.20;0.10;;;8.70;99.90;;;;;;21066411;28;20470;-67
2023/03/03 08:49:31;;;;;;;0.20;0.10;;;9.10;99.90;;;;;;20979955;28;20393;-66
2023/03/03 08:59:37;;;;;;;0.20;0.10;;;9.50;99.90;;;;;;20982802;28;20417;-68
2023/03/03 09:09:41;;;;;;;0.20;0.10;;;9.90;99.90;;;;;;20981678;28;20412;-68
2023/03/03 09:19:46;;;;;;;0.20;0.00;;;10.20;99.90;;;;;;20963846;28;20502;-67
2023/03/03 09:29:50;;;;;;;0.20;0.10;;;10.70;99.90;;;;;;21007393;28;20941;-68
2023/03/03 09:39:57;;;;;;;0.20;0.10;;;11.30;99.90;;;;;;21045004;28;20416;-69
2023/03/03 09:50:12;;;;;;;0.20;0.10;;;11.60;99.90;;;;;;20994817;28;20410;-68
2023/03/03 10:00:32;;;;;;;0.20;0.10;;;11.60;99.90;;;;;;20958708;28;20422;-68
2023/03/03 10:10:48;;;;;;;0.20;0.10;;;11.70;99.90;;;;;;20959395;28;20907;-70
2023/03/03 10:21:08;;;;;;;0.20;0.10;;;12.00;99.90;;;;;;20968136;28;20416;-68
2023/03/03 10:31:20;;;;;;;0.20;0.00;;;12.60;99.90;;;;;;20972150;28;20406;-67
2023/03/03 10:41:49;;;;;;;0.20;0.10;;;12.80;99.90;;;;;;20956934;28;20493;-68
2023/03/03 10:52:09;;;;;;;0.20;0.10;;;13.10;99.90;;;;;;20967590;28;20929;-67
2023/03/03 11:02:21;;;;;;;0.20;0.00;;;13.40;99.90;;;;;;20913007;28;20415;-67
2023/03/03 11:12:34;;;;;;;0.20;0.10;;;13.60;99.90;;;;;;20904698;28;20415;-68
2023/03/03 11:22:47;;;;;;;0.20;0.00;;;14.20;99.90;;;;;;20905365;28;20407;-66
2023/03/03 11:33:00;;;;;;;0.20;0.10;;;14.20;99.90;;;;;;20904666;28;20395;-69
2023/03/03 11:43:13;;;;;;;0.20;0.00;;;14.90;99.90;;;;;;20894931;28;20386;-67
2023/03/03 11:53:49;;;;;;;0.20;0.10;;;15.50;99.90;;;;;;20901593;28;20451;-68
2023/03/03 12:03:58;;;;;;;1.90;1.40;;;15.70;99.90;;;;;;20902280;28;20398;-67
2023/03/03 12:14:09;;;;;;;0.20;0.10;;;16.30;99.90;;;;;;20901315;28;20489;-68
2023/03/03 12:24:29;;;;;;;0.20;0.03;;;16.10;99.90;;;;;;20900863;28;20427;-68
2023/03/03 12:34:38;;;;;;;0.20;0.10;;;16.90;99.90;;;;;;20901078;28;20447;-66
2023/03/03 12:44:53;;;;;;;0.20;0.00;;;17.10;99.90;;;;;;20919954;28;20406;-66
2023/03/03 12:55:07;;;;;;;0.20;0.00;;;18.00;99.90;;;;;;20904571;28;20478;-66
2023/03/03 13:05:21;;;;;;;0.20;0.03;;;18.30;99.90;;;;;;20881178;28;20408;-68
2023/03/03 13:15:28;;;;;;;0.20;0.08;;;19.00;99.90;;;;;;20863527;28;20914;-67
2023/03/03 13:26:02;;;;;;;0.20;0.10;;;19.00;99.90;;;;;;20878019;28;20462;-68
2023/03/03 13:36:10;;;;;;;0.20;0.10;;;19.30;99.90;;;;;;20887961;28;20419;-69
2023/03/03 13:46:25;;;;;;;0.20;0.10;;;19.10;99.90;;;;;;20924844;28;20804;-68
2023/03/03 13:56:43;;;;;;;0.20;0.00;;;19.80;99.90;;;;;;20860590;28;20485;-68
2023/03/03 14:06:54;;;;;;;0.20;0.10;;;19.80;99.90;;;;;;20894990;28;20457;-69
2023/03/03 14:17:03;;;;;;;0.20;0.10;;;20.60;99.90;;;;;;20875321;28;20883;-69
2023/03/03 14:27:24;;;;;;;0.20;0.10;;;19.90;99.90;;;;;;20875069;28;21060;-69
2023/03/03 14:37:42;;;;;;;0.20;0.10;;;20.20;99.90;;;;;;20891245;28;20760;-68
2023/03/03 14:47:48;;;;;;;0.20;0.10;;;20.10;99.90;;;;;;20906006;28;20403;-68
2023/03/03 14:57:52;;;;;;;0.20;0.10;;;20.40;99.90;;;;;;20888985;28;20418;-68
2023/03/03 15:08:08;;;;;;;0.20;0.10;;;20.20;99.90;;;;;;20917990;28;20758;-68
2023/03/03 15:18:14;;;;;;;0.20;0.10;;;21.30;99.90;;;;;;20933676;28;20475;-67
2023/03/03 15:28:38;;;;;;;0.20;0.10;;;21.20;99.90;;;;;;20950267;28;20402;-68
2023/03/03 15:38:51;;;;;;;0.20;0.08;;;21.00;99.90;;;;;;20934330;28;20441;-67
2023/03/03 15:49:12;;;;;;;0.20;0.08;;;20.30;99.90;;;;;;20939134;28;20418;-69
2023/03/03 15:59:49;;;;;;;0.20;0.10;;;19.10;99.90;;;;;;20897715;28;20859;-68
2023/03/03 16:10:03;;;;;;;0.20;0.10;;;19.00;99.90;;;;;;20898980;28;20553;-68
2023/03/03 16:20:20;;;;;;;0.20;0.00;;;17.80;99.90;;;;;;20879479;28;20427;-68
2023/03/03 16:30:32;;;;;;;0.20;0.03;;;17.70;99.90;;;;;;20994788;28;20407;-67
2023/03/03 16:40:44;;;;;;;0.20;0.10;;;16.30;99.90;;;;;;21044563;28;20759;-67
2023/03/03 16:51:02;;;;;;;0.20;0.10;;;15.40;99.90;;;;;;20995512;28;20402;-67
2023/03/03 17:01:14;;;;;;;0.20;0.10;;;15.10;99.90;;;;;;20988259;28;20471;-68
2023/03/03 17:11:29;;;;;;;0.20;0.00;;;14.30;99.90;;;;;;21013604;28;20395;-68
2023/03/03 17:21:44;;;;;;;0.20;0.00;;;13.70;99.90;;;;;;20960445;28;20406;-67
2023/03/03 17:31:57;;;;;;;0.20;0.10;;;13.40;99.90;;;;;;20986047;28;20772;-67
2023/03/03 17:42:06;;;;;;;0.20;0.00;;;13.10;99.90;;;;;;21039401;28;20408;-68
2023/03/03 17:52:40;;;;;;;0.20;0.10;;;12.90;99.90;;;;;;20923278;28;20557;-69
2023/03/03 18:03:03;;;;;;;0.20;0.00;;;12.60;99.90;;;;;;20893401;28;20538;-65
2023/03/03 18:13:24;;;;;;;0.20;0.10;;;12.20;99.90;;;;;;20893453;28;20400;-67
2023/03/03 18:23:38;;;;;;;0.20;0.10;;;11.50;99.90;;;;;;20892670;28;20439;-68
2023/03/03 18:33:56;;;;;;;0.20;0.10;;;10.60;99.90;;;;;;20926955;28;20402;-67
2023/03/03 18:44:03;;;;;;;0.20;0.10;;;10.10;99.90;;;;;;20960233;28;20412;-68
2023/03/03 18:54:28;;;;;;;0.20;0.00;;;10.00;99.90;;;;;;20997542;28;20393;-69
2023/03/03 19:04:37;;;;;;;0.20;0.10;;;9.60;99.90;;;;;;21034188;28;20400;-69
2023/03/03 19:14:44;;;;;;;0.20;0.10;;;9.60;99.90;;;;;;21038009;28;20513;-67
2023/03/03 19:25:12;;;;;;;0.20;0.10;;;9.30;99.90;;;;;;21020376;28;20558;-69
2023/03/03 19:35:28;;;;;;;0.20;0.00;;;9.10;99.90;;;;;;20933735;28;20795;-67
2023/03/03 19:45:49;;;;;;;0.20;0.00;;;9.00;99.90;;;;;;20965459;28;20510;-67
2023/03/03 19:56:14;;;;;;;0.20;0.10;;;8.90;99.90;;;;;;20983286;28;20468;-68
2023/03/03 20:06:32;;;;;;;0.20;0.00;;;8.70;99.90;;;;;;20948190;28;20796;-66
2023/03/03 20:16:40;;;;;;;0.20;0.10;;;8.50;99.90;;;;;;20990018;28;20419;-68
2023/03/03 20:26:56;;;;;;;0.20;0.10;;;8.30;99.90;;;;;;20987535;28;20401;-69
2023/03/03 20:37:08;;;;;;;0.20;0.10;;;8.30;99.90;;;;;;20987115;28;20928;-68
2023/03/03 20:47:21;;;;;;;0.20;0.10;;;7.90;99.90;;;;;;20944175;28;20481;-68
2023/03/03 20:57:34;;;;;;;0.20;0.00;;;8.10;99.90;;;;;;20979574;28;20478;-67
2023/03/03 21:07:52;;;;;;;0.20;0.10;;;8.10;99.90;;;;;;20978166;28;20394;-67
2023/03/03 21:17:58;;;;;;;0.20;0.03;;;8.00;99.90;;;;;;20979832;28;20444;-68
2023/03/03 21:28:20;;;;;;;0.20;0.00;;;7.90;99.90;;;;;;21016844;28;20490;-66
2023/03/03 21:38:35;;;;;;;0.20;0.10;;;8.00;99.90;;;;;;21059054;28;20509;-66
2023/03/03 21:48:41;;;;;;;0.20;0.00;;;7.80;99.90;;;;;;20984999;28;20473;-66
2023/03/03 21:58:46;;;;;;;0.20;0.10;;;7.80;99.90;;;;;;20956375;28;20513;-67
2023/03/03 22:08:50;;;;;;;0.20;0.10;;;7.50;99.90;;;;;;20973991;28;20485;-67
2023/03/03 22:18:55;;;;;;;0.20;0.10;;;7.60;99.90;;;;;;20976976;28;20413;-67
2023/03/03 22:28:59;;;;;;;0.20;0.00;;;7.30;99.90;;;;;;20958696;28;20521;-66
2023/03/03 22:39:04;;;;;;;0.20;0.10;;;7.40;99.90;;;;;;20960809;28;20969;-68
2023/03/03 22:49:08;;;;;;;0.20;0.03;;;7.40;99.90;;;;;;20957527;28;21043;-69
2023/03/03 22:59:13;;;;;;;0.20;0.10;;;7.50;99.90;;;;;;20889000;28;20465;-68
2023/03/03 23:09:17;;;;;;;0.20;0.10;;;7.50;99.90;;;;;;20920370;28;20396;-68
2023/03/03 23:19:22;;;;;;;0.20;0.10;;;7.50;99.90;;;;;;20988655;28;20471;-68
2023/03/03 23:29:26;;;;;;;0.20;0.10;;;7.50;99.90;;;;;;21034635;28;20455;-68
2023/03/03 23:39:31;;;;;;;0.20;0.00;;;7.40;99.90;;;;;;20993657;28;20478;-68
2023/03/03 23:49:35;;;;;;;0.20;0.00;;;7.40;99.90;;;;;;21029124;28;20463;-66
2023/03/03 23:59:40;;;;;;;0.20;0.10;;;7.50;99.90;;;;;;21029158;28;20891;-67
